Time;durP1;ratioP1;P1;durP2;ratioP2;P2;SDS_P1;SDS_P2;PMS_P1;PMS_P2;Temp;Humidity;BMP_temperature;BMP_pressure;BME280_temperature;BME280_humidity;BME280_pressure;Samples;Min_cycle;Max_cycle;Signal;HPM_P1;HPM_P2
2023/09/05 00:02:01;;;;;;;6.95;4.28;;;;;;;;;;6275545;28;20045;-79
2023/09/05 00:05:05;;;;;;;7.93;4.00;;;;;;;;;;6274083;28;20857;-78
2023/09/05 00:08:10;;;;;;;8.40;3.95;;;;;;;;;;6274608;28;20067;-76
2023/09/05 00:11:12;;;;;;;4.00;3.60;;;;;;;;;;6275419;28;20049;-76
2023/09/05 00:14:15;;;;;;;5.72;4.05;;;;;;;;;;6275938;28;20337;-77
2023/09/05 00:17:17;;;;;;;11.32;3.35;;;;;;;;;;6272283;28;20041;-77
2023/09/05 00:20:19;;;;;;;4.93;3.38;;;;;;;;;;6273319;28;20071;-77
2023/09/05 00:23:22;;;;;;;8.35;3.85;;;;;;;;;;6273670;28;20063;-77
2023/09/05 00:26:24;;;;;;;;;;;;;;;;;;6277745;28;20049;-77
2023/09/05 00:29:27;;;;;;;5.72;3.03;;;;;;;;;;6277743;28;19983;-77
2023/09/05 00:32:32;;;;;;;5.88;3.47;;;;;;;;;;6268745;28;21839;-77
2023/09/05 00:35:34;;;;;;;6.03;2.60;;;;;;;;;;6270468;28;20349;-76
2023/09/05 00:38:42;;;;;;;5.88;3.58;;;;;;;;;;6271895;28;20375;-76
2023/09/05 00:41:44;;;;;;;5.15;2.85;;;;;;;;;;6275934;28;20060;-76
2023/09/05 00:44:48;;;;;;;4.10;2.90;;;;;;;;;;6274533;28;20045;-76
2023/09/05 00:47:50;;;;;;;4.78;3.05;;;;;;;;;;6272685;28;20065;-79
2023/09/05 00:50:52;;;;;;;6.18;3.30;;;;;;;;;;6276264;28;20044;-76
2023/09/05 00:53:56;;;;;;;4.57;2.88;;;;;;;;;;6273552;28;20064;-76
2023/09/05 00:56:57;;;;;;;;;;;;;;;;;;6276118;28;20041;-78
2023/09/05 01:00:04;;;;;;;5.57;3.55;;;;;;;;;;6274403;28;19956;-78
2023/09/05 01:03:06;;;;;;;6.93;3.50;;;;;;;;;;6273844;28;20075;-76
2023/09/05 01:06:26;;;;;;;6.32;2.95;;;;;;;;;;6274809;28;20051;-77
2023/09/05 01:09:38;;;;;;;9.23;3.17;;;;;;;;;;6275614;28;20272;-77
2023/09/05 01:12:39;;;;;;;3.63;2.60;;;;;;;;;;6274768;28;20049;-79
2023/09/05 01:15:42;;;;;;;5.18;2.38;;;;;;;;;;6273413;28;20049;-77
2023/09/05 01:18:47;;;;;;;3.88;2.47;;;;;;;;;;6272963;28;20052;-77
2023/09/05 01:21:57;;;;;;;3.33;2.47;;;;;;;;;;6265395;28;20057;-77
2023/09/05 01:25:00;;;;;;;5.15;2.38;;;;;;;;;;6264923;28;20268;-77
2023/09/05 01:28:12;;;;;;;;;;;;;;;;;;6271945;28;20056;-77
2023/09/05 01:31:15;;;;;;;4.50;2.40;;;;;;;;;;6274083;28;20141;-76
2023/09/05 05:05:11;;;;;;;5.88;2.17;;;;;;;;;;7633169;22;1441412;-75
2023/09/05 05:08:13;;;;;;;2.63;2.03;;;;;;;;;;7678374;23;20032;-76
2023/09/05 05:11:15;;;;;;;5.28;2.30;;;;;;;;;;7682261;23;20032;-76
2023/09/05 05:14:16;;;;;;;6.50;2.10;;;;;;;;;;7682657;23;20017;-76
2023/09/05 05:17:30;;;;;;;9.05;2.35;;;;;;;;;;7691279;23;20017;-79
2023/09/05 05:20:33;;;;;;;4.65;1.80;;;;;;;;;;7627137;23;20021;-77
2023/09/05 05:23:35;;;;;;;6.93;2.13;;;;;;;;;;7647518;23;20072;-75
2023/09/05 05:26:37;;;;;;;5.43;1.90;;;;;;;;;;7644674;23;20329;-74
2023/09/05 05:29:39;;;;;;;3.95;2.10;;;;;;;;;;7646078;23;20023;-75
2023/09/05 05:32:41;;;;;;;10.48;2.17;;;;;;;;;;7646663;23;20037;-76
2023/09/05 05:35:44;;;;;;;5.47;2.03;;;;;;;;;;7659597;23;20021;-76
2023/09/05 05:38:45;;;;;;;5.75;1.98;;;;;;;;;;7681932;23;20029;-76
2023/09/05 05:41:47;;;;;;;4.88;2.55;;;;;;;;;;7683899;23;20036;-76
2023/09/05 05:44:49;;;;;;;3.50;2.10;;;;;;;;;;7682179;23;20304;-77
2023/09/05 05:47:53;;;;;;;5.57;2.33;;;;;;;;;;7682266;23;20445;-76
2023/09/05 05:50:56;;;;;;;4.07;2.00;;;;;;;;;;7682961;23;20435;-77
2023/09/05 05:53:58;;;;;;;4.47;2.10;;;;;;;;;;7684257;23;20029;-75
2023/09/05 05:57:02;;;;;;;4.20;2.38;;;;;;;;;;7681681;23;20021;-76
2023/09/05 06:00:06;;;;;;;7.78;2.13;;;;;;;;;;7683596;23;20036;-78
2023/09/05 06:03:11;;;;;;;5.63;2.15;;;;;;;;;;7681121;23;20084;-76
2023/09/05 06:06:16;;;;;;;7.53;2.38;;;;;;;;;;7730945;23;20043;-75
2023/09/05 06:09:18;;;;;;;3.58;2.10;;;;;;;;;;7756170;22;20025;-75
2023/09/05 06:12:20;;;;;;;4.38;2.25;;;;;;;;;;7758389;23;20038;-77
2023/09/05 06:15:21;;;;;;;4.10;2.08;;;;;;;;;;7758065;23;20024;-76
2023/09/05 06:18:24;;;;;;;7.88;2.70;;;;;;;;;;7756727;23;20036;-77
2023/09/05 06:21:27;;;;;;;3.35;1.98;;;;;;;;;;7730933;22;20036;-77
2023/09/05 06:24:29;;;;;;;3.85;2.47;;;;;;;;;;7757340;23;20028;-77
2023/09/05 06:27:30;;;;;;;5.28;1.92;;;;;;;;;;7754248;23;20027;-76
2023/09/05 06:30:32;;;;;;;4.25;1.90;;;;;;;;;;7757934;23;20034;-77
2023/09/05 06:33:34;;;;;;;5.85;2.20;;;;;;;;;;7757330;22;20088;-77
2023/09/05 06:36:37;;;;;;;5.93;2.45;;;;;;;;;;7758734;23;20024;-76
2023/09/05 06:39:38;;;;;;;3.72;2.25;;;;;;;;;;7757250;22;20323;-77
2023/09/05 06:42:40;;;;;;;8.00;2.17;;;;;;;;;;7760203;23;20219;-77
2023/09/05 06:45:42;;;;;;;8.52;2.30;;;;;;;;;;7720909;23;20027;-76
2023/09/05 06:48:44;;;;;;;8.85;2.95;;;;;;;;;;7721414;23;20021;-76
2023/09/05 06:51:47;;;;;;;5.10;2.47;;;;;;;;;;7721794;23;20052;-77
2023/09/05 06:54:50;;;;;;;12.00;2.58;;;;;;;;;;7722295;23;20028;-77
2023/09/05 06:57:51;;;;;;;5.18;2.45;;;;;;;;;;7721860;23;20032;-77
2023/09/05 07:00:54;;;;;;;3.78;2.58;;;;;;;;;;7721124;23;20088;-76
2023/09/05 07:03:56;;;;;;;5.85;2.92;;;;;;;;;;7723435;23;20091;-76
2023/09/05 07:07:00;;;;;;;4.32;2.92;;;;;;;;;;7720901;23;20025;-77
2023/09/05 07:10:02;;;;;;;5.63;2.85;;;;;;;;;;7722584;23;20323;-78
2023/09/05 07:13:04;;;;;;;4.75;2.75;;;;;;;;;;7720632;23;20040;-77
2023/09/05 07:16:06;;;;;;;8.18;2.95;;;;;;;;;;7723417;23;20028;-77
2023/09/05 07:19:08;;;;;;;6.25;2.90;;;;;;;;;;7721916;23;20024;-76
2023/09/05 07:22:11;;;;;;;4.75;2.55;;;;;;;;;;7722608;23;20316;-78
2023/09/05 07:25:13;;;;;;;5.63;3.08;;;;;;;;;;7721682;23;20031;-77
2023/09/05 07:28:14;;;;;;;3.97;2.95;;;;;;;;;;7722140;23;20379;-77
2023/09/05 07:31:17;;;;;;;7.38;3.03;;;;;;;;;;7721154;23;20024;-77
2023/09/05 07:34:19;;;;;;;5.22;3.00;;;;;;;;;;7721812;23;20051;-76
2023/09/05 07:37:22;;;;;;;4.80;3.30;;;;;;;;;;7722507;23;20037;-77
2023/09/05 07:40:26;;;;;;;5.28;3.15;;;;;;;;;;7720058;23;20214;-77
2023/09/05 07:43:28;;;;;;;5.00;2.83;;;;;;;;;;7720024;23;20032;-77
2023/09/05 07:46:29;;;;;;;9.60;3.20;;;;;;;;;;7722471;23;20271;-77
2023/09/05 07:49:36;;;;;;;7.15;3.33;;;;;;;;;;7722608;23;20024;-76
2023/09/05 07:52:39;;;;;;;5.07;2.70;;;;;;;;;;7722483;23;20025;-76
2023/09/05 07:55:41;;;;;;;9.50;3.20;;;;;;;;;;7721130;23;20081;-77
2023/09/05 07:58:42;;;;;;;4.45;2.67;;;;;;;;;;7721193;23;20084;-77
2023/09/05 08:01:44;;;;;;;5.13;2.75;;;;;;;;;;7721927;23;20029;-77
2023/09/05 08:04:46;;;;;;;6.18;2.65;;;;;;;;;;7720784;23;20029;-77
2023/09/05 08:07:50;;;;;;;5.65;2.75;;;;;;;;;;7720855;23;20083;-77
2023/09/05 08:10:52;;;;;;;4.97;2.88;;;;;;;;;;7721105;23;20059;-76
2023/09/05 08:13:54;;;;;;;13.88;2.92;;;;;;;;;;7720491;23;20028;-76
2023/09/05 08:16:56;;;;;;;6.15;2.90;;;;;;;;;;7721781;23;20186;-77
2023/09/05 08:19:58;;;;;;;5.00;2.80;;;;;;;;;;7721811;23;20411;-76
2023/09/05 08:23:02;;;;;;;8.23;2.85;;;;;;;;;;7719853;23;20021;-76
2023/09/05 08:26:04;;;;;;;5.93;2.83;;;;;;;;;;7721370;23;20024;-76
2023/09/05 08:29:06;;;;;;;4.05;2.72;;;;;;;;;;7721768;23;20051;-76
2023/09/05 08:32:08;;;;;;;6.28;2.65;;;;;;;;;;7720376;23;20080;-76
2023/09/05 08:35:10;;;;;;;8.20;3.10;;;;;;;;;;7721539;23;20035;-76
2023/09/05 08:38:13;;;;;;;5.35;2.90;;;;;;;;;;7721345;23;20020;-76
2023/09/05 08:41:17;;;;;;;6.47;3.20;;;;;;;;;;7720278;23;20013;-77
2023/09/05 08:44:19;;;;;;;4.82;2.60;;;;;;;;;;7720154;23;20027;-76
2023/09/05 08:47:21;;;;;;;5.40;3.08;;;;;;;;;;7720245;23;20028;-76
2023/09/05 08:50:25;;;;;;;5.43;2.88;;;;;;;;;;7722062;23;20049;-76
2023/09/05 08:53:32;;;;;;;6.47;2.65;;;;;;;;;;7721340;23;20066;-76
2023/09/05 08:56:34;;;;;;;8.00;3.00;;;;;;;;;;7720916;23;20032;-76
2023/09/05 08:59:36;;;;;;;6.25;2.95;;;;;;;;;;7720354;23;20020;-76
2023/09/05 09:02:38;;;;;;;10.73;3.37;;;;;;;;;;7721264;23;20021;-76
2023/09/05 09:05:41;;;;;;;13.25;2.95;;;;;;;;;;7720698;23;20634;-76
2023/09/05 09:08:45;;;;;;;7.95;3.15;;;;;;;;;;7717887;23;20020;-76
2023/09/05 09:11:59;;;;;;;5.90;2.85;;;;;;;;;;7719729;23;20453;-77
2023/09/05 09:15:10;;;;;;;4.57;2.40;;;;;;;;;;7720281;22;20028;-77
2023/09/05 09:18:12;;;;;;;4.68;2.65;;;;;;;;;;7720874;23;20315;-76
2023/09/05 09:21:19;;;;;;;7.75;2.80;;;;;;;;;;7693771;23;20220;-76
2023/09/05 09:24:24;;;;;;;7.28;2.83;;;;;;;;;;7720838;23;20036;-76
2023/09/05 09:27:26;;;;;;;7.00;2.63;;;;;;;;;;7705023;23;20025;-76
2023/09/05 09:30:30;;;;;;;5.10;2.47;;;;;;;;;;7719301;23;20098;-76
2023/09/05 09:33:33;;;;;;;4.60;2.65;;;;;;;;;;7719741;23;20036;-76
2023/09/05 09:36:35;;;;;;;8.65;2.88;;;;;;;;;;7721593;23;20025;-76
2023/09/05 09:39:39;;;;;;;9.90;2.58;;;;;;;;;;7721042;23;20028;-76
2023/09/05 09:42:53;;;;;;;5.68;2.22;;;;;;;;;;7720956;23;20025;-77
2023/09/05 09:46:13;;;;;;;10.10;2.60;;;;;;;;;;7719504;23;20024;-76
2023/09/05 09:49:15;;;;;;;5.95;2.55;;;;;;;;;;7720306;22;20067;-76
2023/09/05 09:52:20;;;;;;;7.63;2.70;;;;;;;;;;7721157;23;20087;-76
2023/09/05 09:55:23;;;;;;;4.68;2.50;;;;;;;;;;7704687;23;20024;-76
2023/09/05 09:58:29;;;;;;;4.88;2.78;;;;;;;;;;7719465;23;20021;-76
2023/09/05 10:01:34;;;;;;;5.47;2.40;;;;;;;;;;7720678;23;20032;-76
2023/09/05 10:04:36;;;;;;;9.25;2.45;;;;;;;;;;7709578;23;20219;-76
2023/09/05 10:07:38;;;;;;;6.40;2.60;;;;;;;;;;7722300;23;20166;-75
2023/09/05 10:10:45;;;;;;;7.85;2.60;;;;;;;;;;7722991;23;20253;-77
2023/09/05 10:13:48;;;;;;;5.43;2.47;;;;;;;;;;7722243;23;20020;-77
2023/09/05 10:16:51;;;;;;;7.53;2.95;;;;;;;;;;7722636;23;20028;-75
2023/09/05 10:19:54;;;;;;;7.88;3.78;;;;;;;;;;7722862;23;20329;-76
2023/09/05 10:22:57;;;;;;;;;;;;;;;;;;7722994;23;20215;-76
2023/09/05 10:26:03;;;;;;;4.03;2.38;;;;;;;;;;7722572;23;19927;-76
2023/09/05 10:29:31;;;;;;;4.65;3.17;;;;;;;;;;7722845;23;20103;-77
2023/09/05 10:32:33;;;;;;;11.10;2.53;;;;;;;;;;7723885;23;20362;-75
2023/09/05 10:35:35;;;;;;;6.55;2.72;;;;;;;;;;7721066;23;20044;-76
2023/09/05 10:38:37;;;;;;;8.52;2.75;;;;;;;;;;7722706;23;20080;-76
2023/09/05 10:41:40;;;;;;;5.20;2.70;;;;;;;;;;7723379;23;20021;-76
2023/09/05 10:44:42;;;;;;;6.90;2.88;;;;;;;;;;7721345;23;20042;-77
2023/09/05 10:47:44;;;;;;;4.30;2.53;;;;;;;;;;7723506;23;20084;-76
2023/09/05 10:51:10;;;;;;;5.05;2.17;;;;;;;;;;7722701;23;20521;-77
2023/09/05 10:54:30;;;;;;;6.15;2.47;;;;;;;;;;7722079;23;20048;-76
2023/09/05 10:57:38;;;;;;;5.00;2.40;;;;;;;;;;7721161;23;20028;-76
2023/09/05 11:00:40;;;;;;;7.82;2.80;;;;;;;;;;7722452;23;20021;-76
2023/09/05 11:03:44;;;;;;;5.10;2.60;;;;;;;;;;7719154;22;20036;-76
2023/09/05 11:06:54;;;;;;;5.28;2.50;;;;;;;;;;7721435;23;20034;-77
2023/09/05 11:10:01;;;;;;;6.35;3.20;;;;;;;;;;7721444;23;20316;-76
2023/09/05 11:13:08;;;;;;;5.25;2.72;;;;;;;;;;7719582;23;20028;-76
2023/09/05 11:16:10;;;;;;;7.80;3.15;;;;;;;;;;7707763;23;20028;-76
2023/09/05 11:19:12;;;;;;;3.72;2.20;;;;;;;;;;7707845;23;20273;-76
2023/09/05 11:22:18;;;;;;;5.30;2.63;;;;;;;;;;7721568;23;20076;-75
2023/09/05 11:25:25;;;;;;;6.80;2.55;;;;;;;;;;7721083;23;20022;-76
2023/09/05 11:28:28;;;;;;;6.95;2.95;;;;;;;;;;7722141;23;20224;-77
2023/09/05 11:31:30;;;;;;;8.65;2.50;;;;;;;;;;7720765;23;20047;-76
2023/09/05 11:34:33;;;;;;;5.03;2.30;;;;;;;;;;7721938;23;20039;-76
2023/09/05 11:37:35;;;;;;;5.07;2.70;;;;;;;;;;7721250;23;20040;-76
2023/09/05 11:40:38;;;;;;;4.35;2.47;;;;;;;;;;7722701;23;20567;-76
2023/09/05 11:43:47;;;;;;;5.05;2.22;;;;;;;;;;7720075;23;20347;-77
2023/09/05 11:46:48;;;;;;;6.50;2.90;;;;;;;;;;7704510;23;20030;-77
2023/09/05 11:50:14;;;;;;;6.28;2.50;;;;;;;;;;7723099;23;20021;-77
2023/09/05 11:53:29;;;;;;;3.80;2.38;;;;;;;;;;7720372;23;20071;-77
2023/09/05 11:56:31;;;;;;;8.05;2.30;;;;;;;;;;7720939;23;20058;-78
2023/09/05 11:59:34;;;;;;;4.68;2.58;;;;;;;;;;7719999;23;20103;-76
2023/09/05 12:02:37;;;;;;;55.50;34.67;;;;;;;;;;7721856;23;20020;-76
2023/09/05 12:05:39;;;;;;;45.80;27.25;;;;;;;;;;7721907;23;20040;-74
2023/09/05 12:08:45;;;;;;;23.53;13.83;;;;;;;;;;7723797;23;20031;-76
2023/09/05 12:11:50;;;;;;;22.33;11.95;;;;;;;;;;7751732;23;20022;-77
2023/09/05 12:14:58;;;;;;;13.98;6.70;;;;;;;;;;7759276;23;20030;-75
2023/09/05 12:18:03;;;;;;;19.92;10.57;;;;;;;;;;7760053;23;20055;-76
2023/09/05 12:21:05;;;;;;;12.77;6.20;;;;;;;;;;7759644;23;20028;-76
2023/09/05 12:24:20;;;;;;;13.43;9.70;;;;;;;;;;7759494;22;20303;-76
2023/09/05 12:27:28;;;;;;;10.52;7.00;;;;;;;;;;7758142;23;20024;-77
2023/09/05 12:30:37;;;;;;;14.85;8.80;;;;;;;;;;7759142;23;20083;-78
2023/09/05 12:33:39;;;;;;;4.47;2.90;;;;;;;;;;7757685;23;20102;-78
2023/09/05 12:36:41;;;;;;;5.67;2.80;;;;;;;;;;7759132;23;20020;-76
2023/09/05 12:39:43;;;;;;;5.68;3.00;;;;;;;;;;7747007;22;20224;-76
2023/09/05 12:42:45;;;;;;;9.80;2.50;;;;;;;;;;7721318;23;20021;-76
2023/09/05 12:45:50;;;;;;;7.47;3.20;;;;;;;;;;7720009;23;20027;-76
2023/09/05 12:48:55;;;;;;;3.88;2.10;;;;;;;;;;7720963;23;20071;-76
2023/09/05 12:52:00;;;;;;;7.85;2.20;;;;;;;;;;7720831;23;20032;-76
2023/09/05 12:55:06;;;;;;;4.55;2.20;;;;;;;;;;7721264;23;20244;-77
2023/09/05 12:58:10;;;;;;;6.07;2.72;;;;;;;;;;7722320;23;20028;-76
2023/09/05 13:01:14;;;;;;;4.88;2.30;;;;;;;;;;7717539;23;20028;-78
2023/09/05 13:04:19;;;;;;;5.55;2.58;;;;;;;;;;7707018;23;20020;-76
2023/09/05 13:07:22;;;;;;;3.80;2.30;;;;;;;;;;7719852;23;20051;-76
2023/09/05 13:10:24;;;;;;;5.63;2.42;;;;;;;;;;7719927;23;20427;-75
2023/09/05 13:13:26;;;;;;;3.50;2.00;;;;;;;;;;7719504;22;20023;-78
2023/09/05 13:16:31;;;;;;;7.53;2.43;;;;;;;;;;7721015;23;20032;-76
2023/09/05 13:19:33;;;;;;;4.75;2.80;;;;;;;;;;7704087;23;20075;-77
2023/09/05 13:22:48;;;;;;;5.15;2.35;;;;;;;;;;7721369;23;20028;-78
2023/09/05 13:26:00;;;;;;;3.63;2.25;;;;;;;;;;7755559;23;20026;-77
2023/09/05 13:29:15;;;;;;;5.18;2.42;;;;;;;;;;7736203;23;20259;-77
2023/09/05 13:32:46;;;;;;;6.00;2.38;;;;;;;;;;7759489;23;20032;-77
2023/09/05 13:36:02;;;;;;;4.78;2.20;;;;;;;;;;7586177;23;20021;-77
2023/09/05 13:39:28;;;;;;;5.10;2.20;;;;;;;;;;7544032;23;20082;-78
2023/09/05 13:42:33;;;;;;;6.57;2.10;;;;;;;;;;7535742;23;20311;-77
2023/09/05 13:45:38;;;;;;;4.45;2.45;;;;;;;;;;7534351;23;20048;-77
2023/09/05 13:48:45;;;;;;;2.65;2.00;;;;;;;;;;7533161;23;20026;-77
2023/09/05 13:51:47;;;;;;;3.83;1.65;;;;;;;;;;7534594;23;20308;-77
2023/09/05 13:54:49;;;;;;;4.20;2.25;;;;;;;;;;7533206;23;20326;-78
2023/09/05 13:57:51;;;;;;;2.72;2.00;;;;;;;;;;7534795;23;20087;-78
2023/09/05 14:04:13;;;;;;;4.38;2.33;;;;;;;;;;7529749;23;20057;-77
2023/09/05 14:07:15;;;;;;;3.47;2.50;;;;;;;;;;7533932;23;20026;-79
2023/09/05 14:10:17;;;;;;;4.18;2.30;;;;;;;;;;7534460;23;20082;-80
2023/09/05 14:13:18;;;;;;;;;;;;;;;;;;7622966;23;20021;-78
2023/09/05 14:16:20;;;;;;;4.38;2.30;;;;;;;;;;7643439;23;19920;-78
2023/09/05 14:19:24;;;;;;;6.05;2.47;;;;;;;;;;7682715;23;20189;-77
2023/09/05 14:22:26;;;;;;;5.18;2.15;;;;;;;;;;7720355;23;20032;-78
2023/09/05 14:25:27;;;;;;;;;;;;;;;;;;7721145;23;20028;-78
2023/09/05 14:28:29;;;;;;;24.33;18.87;;;;;;;;;;7720634;23;19934;-77
2023/09/05 14:31:31;;;;;;;18.95;16.95;;;;;;;;;;7720706;22;20025;-78
2023/09/05 14:34:35;;;;;;;7.55;2.92;;;;;;;;;;7720924;23;20269;-78
2023/09/05 14:37:36;;;;;;;3.90;2.60;;;;;;;;;;7719704;23;20029;-78
2023/09/05 14:40:38;;;;;;;;;;;;;;;;;;7721818;23;20087;-78
2023/09/05 14:43:40;;;;;;;5.07;2.60;;;;;;;;;;7719619;23;19941;-78
2023/09/05 14:46:42;;;;;;;7.25;2.60;;;;;;;;;;7720216;23;20028;-77
2023/09/05 14:49:46;;;;;;;3.90;2.60;;;;;;;;;;7720678;22;20028;-78
2023/09/05 14:52:55;;;;;;;6.07;2.63;;;;;;;;;;7718934;23;20245;-78
2023/09/05 14:55:58;;;;;;;6.50;3.00;;;;;;;;;;7683342;23;20092;-77
2023/09/05 14:59:00;;;;;;;2.63;2.40;;;;;;;;;;7684638;23;20033;-77
2023/09/05 15:02:02;;;;;;;4.85;2.70;;;;;;;;;;7685271;23;20374;-77
2023/09/05 15:05:05;;;;;;;;;;;;;;;;;;7690856;23;20316;-77
2023/09/05 15:08:07;;;;;;;5.45;2.70;;;;;;;;;;7722808;23;19966;-77
2023/09/05 15:11:28;;;;;;;4.88;2.65;;;;;;;;;;7720302;22;20036;-78
2023/09/05 15:14:30;;;;;;;5.53;2.97;;;;;;;;;;7721579;23;20056;-78
2023/09/05 15:17:36;;;;;;;4.75;3.08;;;;;;;;;;7721389;23;20033;-79
2023/09/05 15:20:42;;;;;;;3.75;2.35;;;;;;;;;;7722312;23;20072;-79
2023/09/05 15:23:43;;;;;;;3.28;2.35;;;;;;;;;;7721888;23;20343;-79
2023/09/05 15:26:45;;;;;;;6.43;2.50;;;;;;;;;;7720745;23;20321;-77
2023/09/05 15:29:52;;;;;;;;;;;;;;;;;;7721443;23;20325;-78
2023/09/05 15:32:53;;;;;;;3.42;2.55;;;;;;;;;;7721208;22;19942;-77
2023/09/05 15:36:00;;;;;;;2.60;2.40;;;;;;;;;;7721056;23;20386;-77
2023/09/05 15:39:02;;;;;;;4.95;2.50;;;;;;;;;;7720196;22;20021;-77
2023/09/05 15:42:04;;;;;;;;;;;;;;;;;;7722142;23;20032;-78
2023/09/05 15:45:08;;;;;;;46.95;5.13;;;;;;;;;;7721064;22;20179;-78
2023/09/05 15:48:10;;;;;;;6.93;2.70;;;;;;;;;;7721048;23;20055;-77
2023/09/05 15:51:16;;;;;;;;;;;;;;;;;;7721445;23;20036;-79
2023/09/05 15:54:24;;;;;;;6.47;2.70;;;;;;;;;;7721867;23;20092;-79
2023/09/05 15:57:32;;;;;;;4.80;2.63;;;;;;;;;;7720250;23;20016;-78
2023/09/05 16:00:34;;;;;;;5.72;2.55;;;;;;;;;;7721682;23;20032;-77
2023/09/05 16:03:35;;;;;;;;;;;;;;;;;;7720358;23;20021;-78
2023/09/05 16:06:39;;;;;;;6.88;2.80;;;;;;;;;;7720819;23;19943;-77
2023/09/05 16:09:43;;;;;;;3.30;2.28;;;;;;;;;;7720467;23;20024;-78
2023/09/05 16:12:45;;;;;;;3.13;2.25;;;;;;;;;;7719037;23;20067;-78
2023/09/05 16:15:48;;;;;;;;;;;;;;;;;;7722391;23;20028;-78
2023/09/05 16:18:50;;;;;;;5.43;2.80;;;;;;;;;;7721819;23;19918;-78
2023/09/05 16:21:54;;;;;;;2.70;2.20;;;;;;;;;;7720699;22;20024;-77
2023/09/05 16:24:56;;;;;;;4.18;3.17;;;;;;;;;;7719830;23;20035;-78
2023/09/05 16:27:58;;;;;;;3.42;2.55;;;;;;;;;;7721952;22;20647;-77
2023/09/05 16:31:00;;;;;;;4.35;2.60;;;;;;;;;;7719970;23;20029;-77
2023/09/05 16:34:05;;;;;;;3.03;2.50;;;;;;;;;;7720226;22;20550;-78
2023/09/05 16:37:14;;;;;;;8.50;2.50;;;;;;;;;;7720339;23;20031;-78
2023/09/05 16:40:17;;;;;;;5.47;2.80;;;;;;;;;;7708098;23;20252;-77
2023/09/05 16:43:18;;;;;;;4.75;3.00;;;;;;;;;;7720687;23;20072;-77
2023/09/05 16:46:20;;;;;;;;;;;;;;;;;;7720979;23;20382;-77
2023/09/05 16:49:22;;;;;;;8.30;2.70;;;;;;;;;;7720366;23;19931;-77
2023/09/05 16:52:25;;;;;;;4.80;2.90;;;;;;;;;;7723267;23;20419;-77
2023/09/05 16:55:27;;;;;;;5.38;2.60;;;;;;;;;;7725875;23;20027;-79
2023/09/05 16:58:34;;;;;;;8.20;3.08;;;;;;;;;;7721412;23;20051;-77
2023/09/05 17:01:36;;;;;;;3.58;2.30;;;;;;;;;;7719581;23;20020;-77
2023/09/05 17:04:46;;;;;;;4.35;3.00;;;;;;;;;;7719105;23;20021;-78
2023/09/05 17:07:49;;;;;;;3.35;2.70;;;;;;;;;;7718418;23;20021;-77
2023/09/05 17:10:53;;;;;;;4.68;3.30;;;;;;;;;;7719841;23;20305;-77
2023/09/05 17:13:55;;;;;;;5.45;2.60;;;;;;;;;;7719623;23;20051;-77
2023/09/05 17:16:57;;;;;;;3.60;2.78;;;;;;;;;;7720317;23;20051;-78
2023/09/05 17:19:59;;;;;;;4.67;2.57;;;;;;;;;;7721210;23;20089;-78
2023/09/05 17:30:21;;;;;;;4.55;3.10;;;;;;;;;;7719724;23;20028;-75
2023/09/05 17:33:22;;;;;;;6.38;2.75;;;;;;;;;;7757399;23;20028;-78
2023/09/05 17:36:28;;;;;;;3.67;2.45;;;;;;;;;;7745342;23;20050;-81
2023/09/05 18:34:45;;;;;;;6.43;4.10;;;;;;;;;;7294881;24;20946;-79
2023/09/05 18:38:31;;;;;;;6.50;4.03;;;;;;;;;;7369207;24;20328;-79
2023/09/05 19:23:16;;;;;;;8.73;4.35;;;;;;;;;;7350379;24;20038;-76
2023/09/05 19:29:35;;;;;;;9.80;4.30;;;;;;;;;;7503162;23;20333;-76
2023/09/05 19:32:38;;;;;;;16.73;6.93;;;;;;;;;;7644139;23;20029;-76
2023/09/05 19:35:52;;;;;;;30.88;19.52;;;;;;;;;;7661700;23;20260;-75
2023/09/05 19:38:55;;;;;;;23.58;13.77;;;;;;;;;;7760091;23;20058;-76
2023/09/05 19:41:57;;;;;;;8.80;5.63;;;;;;;;;;7759682;22;20044;-76
2023/09/05 19:45:00;;;;;;;11.43;5.15;;;;;;;;;;7759004;23;20181;-76
2023/09/05 19:48:01;;;;;;;9.73;4.28;;;;;;;;;;7760070;23;20028;-76
2023/09/05 19:51:03;;;;;;;7.80;4.55;;;;;;;;;;7759407;23;20100;-76
2023/09/05 19:54:07;;;;;;;9.52;4.30;;;;;;;;;;7758410;23;20442;-76
2023/09/05 19:57:09;;;;;;;10.27;4.38;;;;;;;;;;7759191;22;20324;-76
2023/09/05 20:00:11;;;;;;;6.03;4.35;;;;;;;;;;7760190;23;20051;-76
2023/09/05 20:03:13;;;;;;;10.85;4.50;;;;;;;;;;7758330;22;20028;-76
2023/09/05 20:06:15;;;;;;;8.68;4.20;;;;;;;;;;7756682;23;20021;-76
2023/09/05 20:09:18;;;;;;;8.30;4.63;;;;;;;;;;7744992;23;20024;-76
2023/09/05 20:12:20;;;;;;;8.82;5.07;;;;;;;;;;7759475;23;20087;-77
2023/09/05 20:15:22;;;;;;;8.07;4.55;;;;;;;;;;7758216;23;20103;-76
2023/09/05 20:18:24;;;;;;;9.75;4.65;;;;;;;;;;7759817;23;20020;-77
2023/09/05 20:21:40;;;;;;;6.47;4.55;;;;;;;;;;7757409;22;20353;-77
2023/09/05 20:24:45;;;;;;;18.73;4.75;;;;;;;;;;7758636;23;20030;-78
2023/09/05 20:28:01;;;;;;;8.88;4.25;;;;;;;;;;7756955;22;20028;-76
2023/09/05 20:31:03;;;;;;;9.85;3.92;;;;;;;;;;7757921;23;20228;-76
2023/09/05 20:34:29;;;;;;;10.93;5.00;;;;;;;;;;7745023;23;20028;-78
2023/09/05 20:37:33;;;;;;;8.35;4.32;;;;;;;;;;7719547;23;20046;-77
2023/09/05 20:40:36;;;;;;;12.45;4.60;;;;;;;;;;7721332;23;20047;-76
2023/09/05 20:43:38;;;;;;;;;;;;;;;;;;7722250;23;20032;-75
2023/09/05 20:46:41;;;;;;;8.73;4.80;;;;;;;;;;7720453;23;19926;-76
2023/09/05 20:49:46;;;;;;;7.20;4.57;;;;;;;;;;7720533;23;20032;-76
2023/09/05 20:52:50;;;;;;;6.80;4.25;;;;;;;;;;7721743;23;20488;-76
2023/09/05 20:55:53;;;;;;;6.80;4.30;;;;;;;;;;7719112;23;20024;-77
2023/09/05 20:58:55;;;;;;;8.98;4.60;;;;;;;;;;7722282;23;20036;-76
2023/09/05 21:01:57;;;;;;;9.35;5.00;;;;;;;;;;7758609;22;20111;-76
2023/09/05 21:04:59;;;;;;;7.75;4.57;;;;;;;;;;7757883;23;20066;-76
2023/09/05 21:08:01;;;;;;;12.05;4.70;;;;;;;;;;7759012;22;20034;-76
2023/09/05 21:11:05;;;;;;;7.63;4.65;;;;;;;;;;7755954;23;20117;-78
2023/09/05 21:14:06;;;;;;;;;;;;;;;;;;7760116;23;20079;-76
2023/09/05 21:17:08;;;;;;;8.23;4.50;;;;;;;;;;7758367;23;19918;-77
2023/09/05 21:20:12;;;;;;;11.73;4.65;;;;;;;;;;7757540;23;20324;-77
2023/09/05 21:23:15;;;;;;;6.70;4.15;;;;;;;;;;7754677;23;20038;-75
2023/09/05 21:26:18;;;;;;;13.82;4.60;;;;;;;;;;7754861;23;20071;-78
2023/09/05 21:29:21;;;;;;;7.82;4.78;;;;;;;;;;7757291;23;20070;-78
2023/09/05 21:32:23;;;;;;;6.13;4.50;;;;;;;;;;7758659;23;20028;-77
2023/09/05 21:35:25;;;;;;;6.75;4.78;;;;;;;;;;7759015;23;20027;-76
2023/09/05 21:38:27;;;;;;;8.63;4.43;;;;;;;;;;7758215;23;20042;-76
2023/09/05 21:41:30;;;;;;;8.30;4.43;;;;;;;;;;7757679;22;20211;-77
2023/09/05 21:44:42;;;;;;;;;;;;;;;;;;;;;
2023/09/05 21:47:44;;;;;;;8.52;4.55;;;;;;;;;;7757050;22;19953;-81
2023/09/05 21:50:48;;;;;;;6.82;4.90;;;;;;;;;;7757634;23;20250;-81
2023/09/05 21:53:51;;;;;;;7.30;4.80;;;;;;;;;;7746674;22;20021;-81
2023/09/05 21:56:54;;;;;;;10.52;4.53;;;;;;;;;;7721045;23;20024;-81
2023/09/05 21:59:56;;;;;;;;;;;;;;;;;;7723006;23;20021;-79
2023/09/05 22:03:02;;;;;;;81.63;44.67;;;;;;;;;;7725412;23;19953;-80
2023/09/05 22:06:07;;;;;;;65.80;35.47;;;;;;;;;;7725908;23;20017;-87
2023/09/05 22:09:09;;;;;;;82.82;48.80;;;;;;;;;;7725484;23;20033;-80
2023/09/05 22:12:12;;;;;;;29.85;18.83;;;;;;;;;;7724171;23;20040;-78
2023/09/05 22:15:15;;;;;;;26.80;16.42;;;;;;;;;;7723028;23;20048;-79
2023/09/05 22:18:18;;;;;;;18.48;11.38;;;;;;;;;;7723838;23;20263;-78
2023/09/05 22:21:22;;;;;;;9.40;5.68;;;;;;;;;;7723326;22;20237;-78
2023/09/05 22:24:25;;;;;;;9.80;4.57;;;;;;;;;;7720061;23;20264;-77
2023/09/05 22:27:34;;;;;;;6.85;4.32;;;;;;;;;;7724087;23;20308;-77
2023/09/05 22:30:39;;;;;;;9.00;4.63;;;;;;;;;;7722281;23;20055;-77
2023/09/05 22:33:41;;;;;;;8.93;4.53;;;;;;;;;;7720609;23;20048;-79
2023/09/05 22:36:43;;;;;;;9.65;5.05;;;;;;;;;;7722962;23;20021;-79
2023/09/05 22:39:45;;;;;;;10.15;4.93;;;;;;;;;;7723312;23;20075;-80
2023/09/05 22:42:48;;;;;;;8.35;4.70;;;;;;;;;;7722930;23;20380;-79
2023/09/05 22:45:50;;;;;;;7.10;5.00;;;;;;;;;;7721279;23;20371;-78
2023/09/05 22:48:52;;;;;;;9.93;4.88;;;;;;;;;;7723509;23;20213;-79
2023/09/05 22:51:54;;;;;;;8.75;5.18;;;;;;;;;;7722649;23;20032;-79
2023/09/05 22:55:05;;;;;;;10.27;4.50;;;;;;;;;;7716071;23;20410;-80
2023/09/05 22:58:11;;;;;;;11.02;5.28;;;;;;;;;;7723623;23;20229;-79
2023/09/05 23:01:15;;;;;;;;;;;;;;;;;;7721192;23;20044;-79
2023/09/05 23:04:17;;;;;;;8.20;4.68;;;;;;;;;;7724043;23;20156;-79
2023/09/05 23:07:19;;;;;;;6.75;4.47;;;;;;;;;;7721612;23;20367;-79
2023/09/05 23:10:21;;;;;;;8.82;5.10;;;;;;;;;;7722280;23;20028;-79
2023/09/05 23:13:24;;;;;;;8.23;4.80;;;;;;;;;;7722434;23;20304;-79
2023/09/05 23:16:34;;;;;;;8.70;4.80;;;;;;;;;;7723370;23;20072;-79
2023/09/05 23:19:38;;;;;;;9.45;4.65;;;;;;;;;;7722507;23;20027;-79
2023/09/05 23:22:40;;;;;;;8.43;4.72;;;;;;;;;;7723157;23;20132;-79
2023/09/05 23:25:45;;;;;;;9.02;4.55;;;;;;;;;;7722192;22;20036;-80
2023/09/05 23:28:48;;;;;;;8.07;4.97;;;;;;;;;;7723088;23;20021;-78
2023/09/05 23:31:50;;;;;;;9.95;4.80;;;;;;;;;;7725906;22;20020;-79
2023/09/05 23:34:54;;;;;;;7.35;4.85;;;;;;;;;;7723139;23;20025;-79
2023/09/05 23:37:55;;;;;;;7.05;4.80;;;;;;;;;;7708406;23;20067;-78
2023/09/05 23:40:57;;;;;;;10.68;5.32;;;;;;;;;;7721226;23;20419;-79
2023/09/05 23:44:04;;;;;;;9.98;5.07;;;;;;;;;;7723659;23;20083;-78
2023/09/05 23:47:07;;;;;;;7.35;4.75;;;;;;;;;;7722163;23;20532;-79
2023/09/05 23:50:12;;;;;;;11.55;5.20;;;;;;;;;;7723340;23;20025;-79
2023/09/05 23:53:15;;;;;;;9.23;5.10;;;;;;;;;;7720328;23;20092;-79